sensor_id;sensor_type;location;lat;lon;timestamp;pressure;altitude;pressure_sealevel;temperature
75273;BMP280;63869;52.344;16.928;2023-06-24T00:00:17;101164.28;;;18.98
75273;BMP280;63869;52.344;16.928;2023-06-24T00:02:44;101152.88;;;18.94
75273;BMP280;63869;52.344;16.928;2023-06-24T00:05:10;101156.44;;;19.01
75273;BMP280;63869;52.344;16.928;2023-06-24T00:07:35;101156.75;;;19.03
75273;BMP280;63869;52.344;16.928;2023-06-24T00:10:12;101153.59;;;19.04
75273;BMP280;63869;52.344;16.928;2023-06-24T00:12:38;101146.84;;;18.90
75273;BMP280;63869;52.344;16.928;2023-06-24T00:15:06;101157.69;;;18.90
75273;BMP280;63869;52.344;16.928;2023-06-24T00:17:31;101159.31;;;18.88
75273;BMP280;63869;52.344;16.928;2023-06-24T00:19:56;101161.28;;;18.87
75273;BMP280;63869;52.344;16.928;2023-06-24T00:22:22;101164.59;;;18.91
75273;BMP280;63869;52.344;16.928;2023-06-24T00:24:47;101169.56;;;18.93
75273;BMP280;63869;52.344;16.928;2023-06-24T00:27:14;101160.41;;;18.90
75273;BMP280;63869;52.344;16.928;2023-06-24T00:29:39;101156.31;;;18.95
75273;BMP280;63869;52.344;16.928;2023-06-24T00:32:05;101165.06;;;18.99
75273;BMP280;63869;52.344;16.928;2023-06-24T00:34:30;101156.63;;;18.97
75273;BMP280;63869;52.344;16.928;2023-06-24T00:36:56;101161.88;;;18.91
75273;BMP280;63869;52.344;16.928;2023-06-24T00:39:21;101160.06;;;18.88
75273;BMP280;63869;52.344;16.928;2023-06-24T00:41:47;101159.31;;;18.88
75273;BMP280;63869;52.344;16.928;2023-06-24T00:44:13;101157.97;;;18.83
75273;BMP280;63869;52.344;16.928;2023-06-24T00:46:38;101167.03;;;18.89
75273;BMP280;63869;52.344;16.928;2023-06-24T00:49:05;101170.03;;;18.91
75273;BMP280;63869;52.344;16.928;2023-06-24T00:51:30;101163.13;;;18.90
75273;BMP280;63869;52.344;16.928;2023-06-24T00:53:57;101172.59;;;18.95
75273;BMP280;63869;52.344;16.928;2023-06-24T00:56:28;101179.50;;;18.96
75273;BMP280;63869;52.344;16.928;2023-06-24T00:58:55;101178.47;;;18.93
75273;BMP280;63869;52.344;16.928;2023-06-24T01:01:22;101187.78;;;18.92
75273;BMP280;63869;52.344;16.928;2023-06-24T01:03:49;101187.19;;;18.97
75273;BMP280;63869;52.344;16.928;2023-06-24T01:06:15;101188.69;;;18.98
75273;BMP280;63869;52.344;16.928;2023-06-24T01:08:40;101187.63;;;18.96
75273;BMP280;63869;52.344;16.928;2023-06-24T01:11:06;101183.28;;;18.89
75273;BMP280;63869;52.344;16.928;2023-06-24T01:13:31;101183.28;;;18.89
75273;BMP280;63869;52.344;16.928;2023-06-24T01:16:00;101182.22;;;18.78
75273;BMP280;63869;52.344;16.928;2023-06-24T01:18:43;101195.91;;;18.83
75273;BMP280;63869;52.344;16.928;2023-06-24T01:21:38;101198.63;;;18.83
75273;BMP280;63869;52.344;16.928;2023-06-24T01:24:28;101197.75;;;18.77
75273;BMP280;63869;52.344;16.928;2023-06-24T01:29:46;101203.91;;;18.78
75273;BMP280;63869;52.344;16.928;2023-06-24T01:32:25;101205.72;;;18.81
75273;BMP280;63869;52.344;16.928;2023-06-24T01:35:07;101203.16;;;18.77
75273;BMP280;63869;52.344;16.928;2023-06-24T01:37:41;101209.63;;;18.80
75273;BMP280;63869;52.344;16.928;2023-06-24T01:42:44;101205.25;;;18.82
75273;BMP280;63869;52.344;16.928;2023-06-24T01:45:14;101214.13;;;18.83
75273;BMP280;63869;52.344;16.928;2023-06-24T01:47:47;101213.69;;;18.84
75273;BMP280;63869;52.344;16.928;2023-06-24T01:50:14;101208.84;;;18.88
75273;BMP280;63869;52.344;16.928;2023-06-24T01:52:43;101210.66;;;18.82
75273;BMP280;63869;52.344;16.928;2023-06-24T01:55:12;101211.28;;;18.86
75273;BMP280;63869;52.344;16.928;2023-06-24T01:57:41;101216.09;;;18.82
75273;BMP280;63869;52.344;16.928;2023-06-24T02:00:09;101219.09;;;18.84
75273;BMP280;63869;52.344;16.928;2023-06-24T02:02:36;101228.16;;;18.90
75273;BMP280;63869;52.344;16.928;2023-06-24T02:05:02;101219.69;;;18.88
75273;BMP280;63869;52.344;16.928;2023-06-24T02:07:29;101222.13;;;18.86
75273;BMP280;63869;52.344;16.928;2023-06-24T02:09:57;101218.94;;;18.88
75273;BMP280;63869;52.344;16.928;2023-06-24T02:12:25;101221.66;;;18.88
75273;BMP280;63869;52.344;16.928;2023-06-24T02:14:54;101228.16;;;18.90
75273;BMP280;63869;52.344;16.928;2023-06-24T02:17:21;101224.22;;;18.91
75273;BMP280;63869;52.344;16.928;2023-06-24T02:19:50;101231.16;;;18.92
75273;BMP280;63869;52.344;16.928;2023-06-24T02:22:17;101232.38;;;18.91
75273;BMP280;63869;52.344;16.928;2023-06-24T02:24:43;101225.75;;;18.92
75273;BMP280;63869;52.344;16.928;2023-06-24T02:27:11;101213.25;;;18.86
75273;BMP280;63869;52.344;16.928;2023-06-24T02:29:37;101223.59;;;18.87
75273;BMP280;63869;52.344;16.928;2023-06-24T02:32:05;101218.78;;;18.82
75273;BMP280;63869;52.344;16.928;2023-06-24T02:34:30;101229.50;;;18.77
75273;BMP280;63869;52.344;16.928;2023-06-24T02:36:55;101226.50;;;18.75
75273;BMP280;63869;52.344;16.928;2023-06-24T02:39:21;101221.34;;;18.68
75273;BMP280;63869;52.344;16.928;2023-06-24T02:41:47;101218.31;;;18.56
75273;BMP280;63869;52.344;16.928;2023-06-24T02:44:15;101230.53;;;18.61
75273;BMP280;63869;52.344;16.928;2023-06-24T02:46:43;101230.19;;;18.50
75273;BMP280;63869;52.344;16.928;2023-06-24T02:49:10;101230.81;;;18.45
75273;BMP280;63869;52.344;16.928;2023-06-24T02:51:38;101245.72;;;18.49
75273;BMP280;63869;52.344;16.928;2023-06-24T02:54:04;101240.41;;;18.46
75273;BMP280;63869;52.344;16.928;2023-06-24T02:56:30;101252.91;;;18.43
75273;BMP280;63869;52.344;16.928;2023-06-24T02:58:56;101251.72;;;18.44
75273;BMP280;63869;52.344;16.928;2023-06-24T03:01:21;101271.28;;;18.48
75273;BMP280;63869;52.344;16.928;2023-06-24T03:03:52;101267.81;;;18.48
75273;BMP280;63869;52.344;16.928;2023-06-24T03:06:18;101269.59;;;18.42
75273;BMP280;63869;52.344;16.928;2023-06-24T03:08:44;101271.13;;;18.43
75273;BMP280;63869;52.344;16.928;2023-06-24T03:11:13;101282.06;;;18.39
75273;BMP280;63869;52.344;16.928;2023-06-24T03:13:39;101296.22;;;18.34
75273;BMP280;63869;52.344;16.928;2023-06-24T03:16:05;101286.25;;;18.31
75273;BMP280;63869;52.344;16.928;2023-06-24T03:18:31;101288.53;;;18.33
75273;BMP280;63869;52.344;16.928;2023-06-24T03:20:56;101281.91;;;18.34
75273;BMP280;63869;52.344;16.928;2023-06-24T03:23:22;101293.56;;;18.22
75273;BMP280;63869;52.344;16.928;2023-06-24T03:25:47;101292.47;;;18.10
75273;BMP280;63869;52.344;16.928;2023-06-24T03:28:12;101289.59;;;18.04
75273;BMP280;63869;52.344;16.928;2023-06-24T03:30:38;101285.84;;;18.02
75273;BMP280;63869;52.344;16.928;2023-06-24T03:33:03;101282.81;;;18.00
75273;BMP280;63869;52.344;16.928;2023-06-24T03:35:28;101283.41;;;18.04
75273;BMP280;63869;52.344;16.928;2023-06-24T03:37:55;101285.25;;;18.07
75273;BMP280;63869;52.344;16.928;2023-06-24T03:40:20;101283.28;;;18.07
75273;BMP280;63869;52.344;16.928;2023-06-24T03:42:45;101285.53;;;18.09
75273;BMP280;63869;52.344;16.928;2023-06-24T03:45:10;101283.94;;;18.11
75273;BMP280;63869;52.344;16.928;2023-06-24T03:47:36;101276.88;;;18.14
75273;BMP280;63869;52.344;16.928;2023-06-24T03:50:01;101275.22;;;18.16
75273;BMP280;63869;52.344;16.928;2023-06-24T03:52:26;101287.88;;;18.20
75273;BMP280;63869;52.344;16.928;2023-06-24T03:54:52;101292.84;;;18.21
75273;BMP280;63869;52.344;16.928;2023-06-24T03:57:18;101292.84;;;18.21
75273;BMP280;63869;52.344;16.928;2023-06-24T03:59:44;101292.09;;;18.21
75273;BMP280;63869;52.344;16.928;2023-06-24T04:02:09;101288.16;;;18.22
75273;BMP280;63869;52.344;16.928;2023-06-24T04:04:35;101304.91;;;18.29
75273;BMP280;63869;52.344;16.928;2023-06-24T04:07:00;101302.50;;;18.31
75273;BMP280;63869;52.344;16.928;2023-06-24T04:09:26;101295.44;;;18.34
75273;BMP280;63869;52.344;16.928;2023-06-24T04:11:51;101302.53;;;18.40
75273;BMP280;63869;52.344;16.928;2023-06-24T04:14:16;101303.94;;;18.45
75273;BMP280;63869;52.344;16.928;2023-06-24T04:16:41;101308.75;;;18.50
75273;BMP280;63869;52.344;16.928;2023-06-24T04:19:07;101308.13;;;18.46
75273;BMP280;63869;52.344;16.928;2023-06-24T04:21:32;101307.50;;;18.42
75273;BMP280;63869;52.344;16.928;2023-06-24T04:23:58;101315.63;;;18.42
75273;BMP280;63869;52.344;16.928;2023-06-24T04:26:23;101322.25;;;18.41
75273;BMP280;63869;52.344;16.928;2023-06-24T04:28:48;101314.56;;;18.39
75273;BMP280;63869;52.344;16.928;2023-06-24T04:31:14;101320.63;;;18.43
75273;BMP280;63869;52.344;16.928;2023-06-24T04:33:39;101321.81;;;18.42
75273;BMP280;63869;52.344;16.928;2023-06-24T04:36:04;101320.28;;;18.41
75273;BMP280;63869;52.344;16.928;2023-06-24T04:38:30;101321.03;;;18.42
75273;BMP280;63869;52.344;16.928;2023-06-24T04:40:55;101324.38;;;18.46
75273;BMP280;63869;52.344;16.928;2023-06-24T04:43:21;101316.00;;;18.53
75273;BMP280;63869;52.344;16.928;2023-06-24T04:45:46;101327.44;;;18.57
75273;BMP280;63869;52.344;16.928;2023-06-24T04:48:11;101330.00;;;18.61
75273;BMP280;63869;52.344;16.928;2023-06-24T04:50:37;101329.56;;;18.62
75273;BMP280;63869;52.344;16.928;2023-06-24T04:53:03;101336.50;;;18.63
75273;BMP280;63869;52.344;16.928;2023-06-24T04:55:28;101336.66;;;18.69
75273;BMP280;63869;52.344;16.928;2023-06-24T04:57:57;101328.06;;;18.70
75273;BMP280;63869;52.344;16.928;2023-06-24T05:00:22;101338.91;;;18.70
75273;BMP280;63869;52.344;16.928;2023-06-24T05:02:49;101322.06;;;18.66
75273;BMP280;63869;52.344;16.928;2023-06-24T05:05:14;101330.53;;;18.77
75273;BMP280;63869;52.344;16.928;2023-06-24T05:07:40;101316.97;;;18.77
75273;BMP280;63869;52.344;16.928;2023-06-24T05:10:05;101325.75;;;18.90
75273;BMP280;63869;52.344;16.928;2023-06-24T05:12:31;101331.63;;;18.98
75273;BMP280;63869;52.344;16.928;2023-06-24T05:14:56;101326.97;;;19.08
75273;BMP280;63869;52.344;16.928;2023-06-24T05:17:21;101324.84;;;19.12
75273;BMP280;63869;52.344;16.928;2023-06-24T05:19:47;101322.59;;;19.19
75273;BMP280;63869;52.344;16.928;2023-06-24T05:22:12;101333.63;;;19.25
75273;BMP280;63869;52.344;16.928;2023-06-24T05:24:37;101332.41;;;19.26
75273;BMP280;63869;52.344;16.928;2023-06-24T05:27:04;101329.97;;;19.28
75273;BMP280;63869;52.344;16.928;2023-06-24T05:29:31;101336.03;;;19.41
75273;BMP280;63869;52.344;16.928;2023-06-24T05:31:56;101338.44;;;19.57
75273;BMP280;63869;52.344;16.928;2023-06-24T05:34:21;101333.44;;;19.74
75273;BMP280;63869;52.344;16.928;2023-06-24T05:36:47;101337.03;;;19.89
75273;BMP280;63869;52.344;16.928;2023-06-24T05:39:13;101343.97;;;19.99
75273;BMP280;63869;52.344;16.928;2023-06-24T05:41:38;101340.44;;;19.99
75273;BMP280;63869;52.344;16.928;2023-06-24T05:44:07;101333.22;;;20.05
75273;BMP280;63869;52.344;16.928;2023-06-24T05:46:33;101325.19;;;20.10
75273;BMP280;63869;52.344;16.928;2023-06-24T05:48:58;101326.97;;;20.23
75273;BMP280;63869;52.344;16.928;2023-06-24T05:51:24;101334.19;;;20.26
75273;BMP280;63869;52.344;16.928;2023-06-24T05:53:49;101335.22;;;20.28
75273;BMP280;63869;52.344;16.928;2023-06-24T05:56:15;101335.84;;;20.32
75273;BMP280;63869;52.344;16.928;2023-06-24T05:58:40;101336.38;;;20.45
75273;BMP280;63869;52.344;16.928;2023-06-24T06:01:07;101335.59;;;20.54
75273;BMP280;63869;52.344;16.928;2023-06-24T06:03:32;101332.69;;;20.57
75273;BMP280;63869;52.344;16.928;2023-06-24T06:05:58;101333.53;;;20.73
75273;BMP280;63869;52.344;16.928;2023-06-24T06:08:23;101337.63;;;20.92
75273;BMP280;63869;52.344;16.928;2023-06-24T06:10:48;101340.66;;;20.94
75273;BMP280;63869;52.344;16.928;2023-06-24T06:13:14;101333.53;;;20.96
75273;BMP280;63869;52.344;16.928;2023-06-24T06:15:39;101336.13;;;21.15
75273;BMP280;63869;52.344;16.928;2023-06-24T06:18:06;101340.13;;;21.19
75273;BMP280;63869;52.344;16.928;2023-06-24T06:20:31;101338.09;;;21.29
75273;BMP280;63869;52.344;16.928;2023-06-24T06:22:56;101337.72;;;21.36
75273;BMP280;63869;52.344;16.928;2023-06-24T06:25:23;101339.25;;;21.52
75273;BMP280;63869;52.344;16.928;2023-06-24T06:27:48;101330.59;;;21.68
75273;BMP280;63869;52.344;16.928;2023-06-24T06:30:14;101333.81;;;21.66
75273;BMP280;63869;52.344;16.928;2023-06-24T06:32:41;101337.81;;;21.56
75273;BMP280;63869;52.344;16.928;2023-06-24T06:35:12;101335.31;;;21.53
75273;BMP280;63869;52.344;16.928;2023-06-24T06:37:37;101336.06;;;21.68
75273;BMP280;63869;52.344;16.928;2023-06-24T06:40:03;101334.00;;;21.77
75273;BMP280;63869;52.344;16.928;2023-06-24T06:42:29;101339.53;;;21.83
75273;BMP280;63869;52.344;16.928;2023-06-24T06:44:55;101345.25;;;21.85
75273;BMP280;63869;52.344;16.928;2023-06-24T06:47:20;101346.75;;;21.86
75273;BMP280;63869;52.344;16.928;2023-06-24T06:49:46;101340.66;;;21.91
75273;BMP280;63869;52.344;16.928;2023-06-24T06:52:11;101333.88;;;22.01
75273;BMP280;63869;52.344;16.928;2023-06-24T06:54:36;101341.06;;;22.19
75273;BMP280;63869;52.344;16.928;2023-06-24T06:57:03;101342.78;;;22.16
75273;BMP280;63869;52.344;16.928;2023-06-24T06:59:30;101342.63;;;22.05
75273;BMP280;63869;52.344;16.928;2023-06-24T07:01:55;101338.84;;;22.03
75273;BMP280;63869;52.344;16.928;2023-06-24T07:04:22;101342.22;;;22.12
75273;BMP280;63869;52.344;16.928;2023-06-24T07:06:47;101341.69;;;22.08
75273;BMP280;63869;52.344;16.928;2023-06-24T07:09:13;101347.88;;;21.79
75273;BMP280;63869;52.344;16.928;2023-06-24T07:11:40;101343.47;;;21.53
75273;BMP280;63869;52.344;16.928;2023-06-24T07:14:05;101342.66;;;21.47
75273;BMP280;63869;52.344;16.928;2023-06-24T07:16:30;101336.91;;;21.30
75273;BMP280;63869;52.344;16.928;2023-06-24T07:18:56;101347.25;;;21.17
75273;BMP280;63869;52.344;16.928;2023-06-24T07:21:21;101347.88;;;20.97
75273;BMP280;63869;52.344;16.928;2023-06-24T07:23:47;101346.41;;;20.87
75273;BMP280;63869;52.344;16.928;2023-06-24T07:26:13;101349.34;;;20.74
75273;BMP280;63869;52.344;16.928;2023-06-24T07:28:39;101347.13;;;20.73
75273;BMP280;63869;52.344;16.928;2023-06-24T07:31:04;101345.84;;;20.83
75273;BMP280;63869;52.344;16.928;2023-06-24T07:33:29;101346.38;;;20.96
75273;BMP280;63869;52.344;16.928;2023-06-24T07:36:00;101349.59;;;21.09
75273;BMP280;63869;52.344;16.928;2023-06-24T07:38:28;101349.53;;;21.18
75273;BMP280;63869;52.344;16.928;2023-06-24T07:40:53;101353.84;;;21.25
75273;BMP280;63869;52.344;16.928;2023-06-24T07:43:19;101349.19;;;21.25
75273;BMP280;63869;52.344;16.928;2023-06-24T07:45:44;101347.47;;;21.28
75273;BMP280;63869;52.344;16.928;2023-06-24T07:48:09;101357.25;;;21.34
75273;BMP280;63869;52.344;16.928;2023-06-24T07:50:34;101346.63;;;21.36
75273;BMP280;63869;52.344;16.928;2023-06-24T07:53:01;101348.09;;;21.47
75273;BMP280;63869;52.344;16.928;2023-06-24T07:55:27;101347.63;;;21.63
75273;BMP280;63869;52.344;16.928;2023-06-24T07:57:52;101349.59;;;21.77
75273;BMP280;63869;52.344;16.928;2023-06-24T08:00:18;101343.13;;;21.89
75273;BMP280;63869;52.344;16.928;2023-06-24T08:02:43;101346.88;;;22.06
75273;BMP280;63869;52.344;16.928;2023-06-24T08:05:09;101353.78;;;22.22
75273;BMP280;63869;52.344;16.928;2023-06-24T08:07:35;101350.09;;;22.25
75273;BMP280;63869;52.344;16.928;2023-06-24T08:10:00;101346.78;;;22.36
75273;BMP280;63869;52.344;16.928;2023-06-24T08:12:26;101356.81;;;22.64
75273;BMP280;63869;52.344;16.928;2023-06-24T08:14:51;101351.19;;;22.88
75273;BMP280;63869;52.344;16.928;2023-06-24T08:17:16;101351.59;;;23.01
75273;BMP280;63869;52.344;16.928;2023-06-24T08:19:42;101342.75;;;23.12
75273;BMP280;63869;52.344;16.928;2023-06-24T08:22:07;101353.06;;;23.28
75273;BMP280;63869;52.344;16.928;2023-06-24T08:24:33;101361.16;;;23.43
75273;BMP280;63869;52.344;16.928;2023-06-24T08:26:58;101356.88;;;23.31
75273;BMP280;63869;52.344;16.928;2023-06-24T08:29:23;101355.94;;;23.13
75273;BMP280;63869;52.344;16.928;2023-06-24T08:31:49;101362.31;;;23.10
75273;BMP280;63869;52.344;16.928;2023-06-24T08:34:14;101359.88;;;23.12
75273;BMP280;63869;52.344;16.928;2023-06-24T08:36:39;101364.50;;;23.27
75273;BMP280;63869;52.344;16.928;2023-06-24T08:39:05;101368.34;;;23.14
75273;BMP280;63869;52.344;16.928;2023-06-24T08:41:30;101356.34;;;23.06
75273;BMP280;63869;52.344;16.928;2023-06-24T08:43:57;101351.97;;;23.14
75273;BMP280;63869;52.344;16.928;2023-06-24T08:46:27;101353.28;;;23.25
75273;BMP280;63869;52.344;16.928;2023-06-24T08:51:50;101353.06;;;23.48
75273;BMP280;63869;52.344;16.928;2023-06-24T08:54:19;101353.81;;;23.49
75273;BMP280;63869;52.344;16.928;2023-06-24T08:56:44;101354.13;;;23.56
75273;BMP280;63869;52.344;16.928;2023-06-24T08:59:10;101349.22;;;23.66
75273;BMP280;63869;52.344;16.928;2023-06-24T09:01:35;101338.69;;;23.90
75273;BMP280;63869;52.344;16.928;2023-06-24T09:04:01;101344.84;;;24.17
75273;BMP280;63869;52.344;16.928;2023-06-24T09:06:26;101346.59;;;24.20
75273;BMP280;63869;52.344;16.928;2023-06-24T09:08:53;101339.06;;;24.03
75273;BMP280;63869;52.344;16.928;2023-06-24T09:11:25;101342.69;;;23.89
75273;BMP280;63869;52.344;16.928;2023-06-24T09:13:56;101345.38;;;23.78
75273;BMP280;63869;52.344;16.928;2023-06-24T09:16:22;101344.63;;;23.83
75273;BMP280;63869;52.344;16.928;2023-06-24T09:18:50;101351.47;;;24.04
75273;BMP280;63869;52.344;16.928;2023-06-24T09:21:26;101339.00;;;24.35
75273;BMP280;63869;52.344;16.928;2023-06-24T09:23:56;101354.78;;;24.62
75273;BMP280;63869;52.344;16.928;2023-06-24T09:26:25;101338.63;;;24.64
75273;BMP280;63869;52.344;16.928;2023-06-24T09:28:51;101341.41;;;24.81
75273;BMP280;63869;52.344;16.928;2023-06-24T09:31:17;101339.13;;;24.68
75273;BMP280;63869;52.344;16.928;2023-06-24T09:33:43;101345.03;;;24.50
75273;BMP280;63869;52.344;16.928;2023-06-24T09:36:12;101353.38;;;24.30
75273;BMP280;63869;52.344;16.928;2023-06-24T09:38:38;101351.03;;;24.12
75273;BMP280;63869;52.344;16.928;2023-06-24T09:41:06;101341.41;;;24.22
75273;BMP280;63869;52.344;16.928;2023-06-24T09:43:37;101344.50;;;24.40
75273;BMP280;63869;52.344;16.928;2023-06-24T09:46:05;101346.78;;;24.53
75273;BMP280;63869;52.344;16.928;2023-06-24T09:48:31;101339.00;;;24.35
75273;BMP280;63869;52.344;16.928;2023-06-24T09:50:59;101333.25;;;24.33
75273;BMP280;63869;52.344;16.928;2023-06-24T09:53:27;101334.63;;;24.60
75273;BMP280;63869;52.344;16.928;2023-06-24T09:55:53;101348.88;;;24.80
75273;BMP280;63869;52.344;16.928;2023-06-24T09:58:19;101352.78;;;24.63
75273;BMP280;63869;52.344;16.928;2023-06-24T10:00:45;101343.94;;;24.31
75273;BMP280;63869;52.344;16.928;2023-06-24T10:03:11;101342.13;;;24.17
75273;BMP280;63869;52.344;16.928;2023-06-24T10:05:37;101347.19;;;24.29
75273;BMP280;63869;52.344;16.928;2023-06-24T10:08:04;101340.28;;;24.45
75273;BMP280;63869;52.344;16.928;2023-06-24T10:10:31;101340.34;;;24.56
75273;BMP280;63869;52.344;16.928;2023-06-24T10:12:56;101335.13;;;24.69
75273;BMP280;63869;52.344;16.928;2023-06-24T10:15:22;101335.97;;;24.86
75273;BMP280;63869;52.344;16.928;2023-06-24T10:17:47;101350.91;;;24.96
75273;BMP280;63869;52.344;16.928;2023-06-24T10:20:14;101340.22;;;25.10
75273;BMP280;63869;52.344;16.928;2023-06-24T10:22:50;101343.25;;;25.34
75273;BMP280;63869;52.344;16.928;2023-06-24T10:25:16;101346.75;;;25.40
75273;BMP280;63869;52.344;16.928;2023-06-24T10:27:41;101341.53;;;25.36
75273;BMP280;63869;52.344;16.928;2023-06-24T10:30:08;101341.72;;;25.44
75273;BMP280;63869;52.344;16.928;2023-06-24T10:32:41;101341.00;;;25.55
75273;BMP280;63869;52.344;16.928;2023-06-24T10:35:21;101355.69;;;25.52
75273;BMP280;63869;52.344;16.928;2023-06-24T10:37:54;101350.72;;;25.56
75273;BMP280;63869;52.344;16.928;2023-06-24T10:40:34;101346.22;;;25.80
75273;BMP280;63869;52.344;16.928;2023-06-24T10:43:04;101336.94;;;25.95
75273;BMP280;63869;52.344;16.928;2023-06-24T10:45:51;101329.19;;;26.10
75273;BMP280;63869;52.344;16.928;2023-06-24T10:48:20;101340.94;;;25.99
75273;BMP280;63869;52.344;16.928;2023-06-24T10:50:45;101345.72;;;25.54
75273;BMP280;63869;52.344;16.928;2023-06-24T10:53:12;101353.94;;;25.37
75273;BMP280;63869;52.344;16.928;2023-06-24T10:55:37;101343.00;;;25.37
75273;BMP280;63869;52.344;16.928;2023-06-24T10:58:10;101337.28;;;25.35
75273;BMP280;63869;52.344;16.928;2023-06-24T11:00:36;101340.53;;;25.39
75273;BMP280;63869;52.344;16.928;2023-06-24T11:03:11;101329.75;;;25.64
75273;BMP280;63869;52.344;16.928;2023-06-24T11:05:39;101327.50;;;25.79
75273;BMP280;63869;52.344;16.928;2023-06-24T11:08:05;101326.72;;;26.01
75273;BMP280;63869;52.344;16.928;2023-06-24T11:10:31;101322.72;;;26.13
75273;BMP280;63869;52.344;16.928;2023-06-24T11:12:56;101319.66;;;26.22
75273;BMP280;63869;52.344;16.928;2023-06-24T11:15:24;101320.41;;;26.22
75273;BMP280;63869;52.344;16.928;2023-06-24T11:17:50;101332.13;;;26.23
75273;BMP280;63869;52.344;16.928;2023-06-24T11:20:16;101320.78;;;25.97
75273;BMP280;63869;52.344;16.928;2023-06-24T11:22:42;101321.25;;;26.01
75273;BMP280;63869;52.344;16.928;2023-06-24T11:25:15;101308.66;;;26.33
75273;BMP280;63869;52.344;16.928;2023-06-24T11:27:42;101315.06;;;26.52
75273;BMP280;63869;52.344;16.928;2023-06-24T11:30:07;101307.28;;;26.62
75273;BMP280;63869;52.344;16.928;2023-06-24T11:32:43;101316.00;;;26.60
75273;BMP280;63869;52.344;16.928;2023-06-24T11:35:10;101311.84;;;26.48
75273;BMP280;63869;52.344;16.928;2023-06-24T11:37:36;101303.53;;;26.59
75273;BMP280;63869;52.344;16.928;2023-06-24T11:40:09;101299.03;;;26.56
75273;BMP280;63869;52.344;16.928;2023-06-24T11:42:40;101302.81;;;26.53
75273;BMP280;63869;52.344;16.928;2023-06-24T11:45:09;101293.41;;;26.43
75273;BMP280;63869;52.344;16.928;2023-06-24T11:47:37;101305.63;;;26.37
75273;BMP280;63869;52.344;16.928;2023-06-24T11:50:05;101308.69;;;26.22
75273;BMP280;63869;52.344;16.928;2023-06-24T11:52:49;101295.25;;;26.18
75273;BMP280;63869;52.344;16.928;2023-06-24T11:55:24;101300.63;;;26.41
75273;BMP280;63869;52.344;16.928;2023-06-24T12:00:23;101281.66;;;26.84
75273;BMP280;63869;52.344;16.928;2023-06-24T12:02:50;101297.75;;;26.68
75273;BMP280;63869;52.344;16.928;2023-06-24T12:05:35;101295.03;;;26.57
75273;BMP280;63869;52.344;16.928;2023-06-24T12:08:06;101285.50;;;26.69
75273;BMP280;63869;52.344;16.928;2023-06-24T12:10:32;101281.38;;;26.87
75273;BMP280;63869;52.344;16.928;2023-06-24T12:12:59;101289.13;;;27.18
75273;BMP280;63869;52.344;16.928;2023-06-24T12:15:25;101293.22;;;27.60
75273;BMP280;63869;52.344;16.928;2023-06-24T12:17:51;101283.41;;;27.65
75273;BMP280;63869;52.344;16.928;2023-06-24T12:20:18;101288.56;;;27.74
75273;BMP280;63869;52.344;16.928;2023-06-24T12:22:48;101287.38;;;27.69
75273;BMP280;63869;52.344;16.928;2023-06-24T12:25:14;101286.94;;;27.36
75273;BMP280;63869;52.344;16.928;2023-06-24T12:27:42;101295.09;;;27.22
75273;BMP280;63869;52.344;16.928;2023-06-24T12:30:08;101286.34;;;26.94
75273;BMP280;63869;52.344;16.928;2023-06-24T12:32:33;101302.91;;;27.13
75273;BMP280;63869;52.344;16.928;2023-06-24T12:35:00;101288.16;;;27.16
75273;BMP280;63869;52.344;16.928;2023-06-24T12:37:29;101294.56;;;27.24
75273;BMP280;63869;52.344;16.928;2023-06-24T12:39:55;101292.16;;;27.15
75273;BMP280;63869;52.344;16.928;2023-06-24T12:42:21;101282.66;;;27.16
75273;BMP280;63869;52.344;16.928;2023-06-24T12:44:46;101284.03;;;27.28
75273;BMP280;63869;52.344;16.928;2023-06-24T12:47:12;101297.56;;;27.50
75273;BMP280;63869;52.344;16.928;2023-06-24T12:49:37;101290.47;;;27.85
75273;BMP280;63869;52.344;16.928;2023-06-24T12:52:02;101298.06;;;28.16
75273;BMP280;63869;52.344;16.928;2023-06-24T12:54:28;101289.66;;;28.27
75273;BMP280;63869;52.344;16.928;2023-06-24T12:56:53;101297.84;;;28.64
75273;BMP280;63869;52.344;16.928;2023-06-24T12:59:20;101289.41;;;29.20
75273;BMP280;63869;52.344;16.928;2023-06-24T13:01:45;101302.03;;;29.55
75273;BMP280;63869;52.344;16.928;2023-06-24T13:04:11;101296.84;;;29.78
75273;BMP280;63869;52.344;16.928;2023-06-24T13:06:37;101299.94;;;30.08
75273;BMP280;63869;52.344;16.928;2023-06-24T13:09:02;101296.34;;;30.34
75273;BMP280;63869;52.344;16.928;2023-06-24T13:11:28;101293.22;;;30.17
75273;BMP280;63869;52.344;16.928;2023-06-24T13:13:53;101292.81;;;30.13
75273;BMP280;63869;52.344;16.928;2023-06-24T13:16:18;101298.81;;;29.91
75273;BMP280;63869;52.344;16.928;2023-06-24T13:18:45;101301.34;;;30.02
75273;BMP280;63869;52.344;16.928;2023-06-24T13:21:10;101279.91;;;30.29
75273;BMP280;63869;52.344;16.928;2023-06-24T13:23:36;101288.94;;;30.70
75273;BMP280;63869;52.344;16.928;2023-06-24T13:26:04;101287.28;;;31.24
75273;BMP280;63869;52.344;16.928;2023-06-24T13:28:29;101293.63;;;31.40
75273;BMP280;63869;52.344;16.928;2023-06-24T13:30:56;101289.59;;;31.41
75273;BMP280;63869;52.344;16.928;2023-06-24T13:33:22;101299.72;;;31.10
75273;BMP280;63869;52.344;16.928;2023-06-24T13:35:47;101301.75;;;31.09
75273;BMP280;63869;52.344;16.928;2023-06-24T13:38:14;101287.94;;;31.38
75273;BMP280;63869;52.344;16.928;2023-06-24T13:40:40;101294.22;;;31.89
75273;BMP280;63869;52.344;16.928;2023-06-24T13:43:06;101284.34;;;32.24
75273;BMP280;63869;52.344;16.928;2023-06-24T13:45:31;101285.06;;;32.47
75273;BMP280;63869;52.344;16.928;2023-06-24T13:47:56;101285.09;;;32.70
75273;BMP280;63869;52.344;16.928;2023-06-24T13:50:22;101286.50;;;33.01
75273;BMP280;63869;52.344;16.928;2023-06-24T13:52:47;101291.63;;;33.12